Time;durP1;ratioP1;P1;durP2;ratioP2;P2;SDS_P1;SDS_P2;PMS_P1;PMS_P2;Temp;Humidity;BMP_temperature;BMP_pressure;BME280_temperature;BME280_humidity;BME280_pressure;Samples;Min_cycle;Max_cycle;Signal;HPM_P1;HPM_P2
2022/10/21 00:00:25;;;;;;;56.13;16.13;;;;;;;2.17;87.73;99521.23;2190934;81;20948;-82
2022/10/21 00:03:26;;;;;;;25.60;16.67;;;;;;;2.13;87.70;99524.44;2190517;81;20983;-81
2022/10/21 00:06:26;;;;;;;23.77;15.83;;;;;;;2.12;87.71;99533.86;2190390;81;21360;-81
2022/10/21 00:09:27;;;;;;;21.87;15.57;;;;;;;2.09;87.62;99525.95;2190524;81;20995;-81
2022/10/21 00:12:27;;;;;;;22.90;15.27;;;;;;;2.09;87.83;99532.39;2190392;81;21003;-81
2022/10/21 00:15:27;;;;;;;26.90;16.00;;;;;;;2.08;87.67;99527.16;2190612;81;21016;-81
2022/10/21 00:18:28;;;;;;;26.07;16.10;;;;;;;2.08;88.11;99528.45;2190284;81;21335;-81
2022/10/21 00:21:28;;;;;;;25.17;15.87;;;;;;;2.10;87.73;99524.27;2190570;81;20948;-81
2022/10/21 00:24:29;;;;;;;30.97;19.17;;;;;;;2.07;88.20;99512.52;2189999;81;21008;-81
2022/10/21 00:27:29;;;;;;;32.07;18.57;;;;;;;2.05;87.96;99518.86;2190561;81;20941;-81
2022/10/21 00:30:30;;;;;;;20.80;13.80;;;;;;;2.04;87.75;99523.52;2190042;81;21379;-81
2022/10/21 00:33:30;;;;;;;76.00;19.33;;;;;;;2.03;88.25;99515.72;2190894;81;21429;-81
2022/10/21 00:36:30;;;;;;;24.53;16.33;;;;;;;2.02;88.08;99520.37;2190554;81;20979;-81
2022/10/21 00:39:31;;;;;;;24.43;15.33;;;;;;;2.02;87.89;99516.52;2190362;81;20999;-79
2022/10/21 00:42:31;;;;;;;26.27;15.73;;;;;;;1.98;88.18;99511.59;2190569;81;20940;-81
2022/10/21 00:45:32;;;;;;;24.60;16.43;;;;;;;1.95;88.01;99504.10;2190702;81;20979;-81
2022/10/21 00:48:32;;;;;;;23.47;15.07;;;;;;;1.91;88.15;99497.49;2190437;81;20937;-81
2022/10/21 00:51:32;;;;;;;22.40;13.90;;;;;;;1.93;88.19;99491.14;2190511;81;20983;-82
2022/10/21 00:54:33;;;;;;;28.07;15.20;;;;;;;1.96;88.71;99494.29;2190095;81;21364;-81
2022/10/21 00:57:33;;;;;;;25.57;15.37;;;;;;;1.98;88.16;99486.25;2190305;81;20948;-81
2022/10/21 01:00:34;;;;;;;28.33;18.17;;;;;;;1.94;88.56;99467.17;2190778;81;20936;-81
2022/10/21 01:03:34;;;;;;;26.53;15.70;;;;;;;1.89;89.03;99442.45;2190410;81;20912;-81
2022/10/21 01:06:34;;;;;;;23.63;16.10;;;;;;;1.86;88.82;99431.11;2190509;81;21367;-81
2022/10/21 01:09:35;;;;;;;30.07;16.80;;;;;;;1.84;88.75;99432.31;2190444;81;20913;-81
2022/10/21 01:12:35;;;;;;;25.30;17.00;;;;;;;1.82;89.08;99421.04;2190406;81;20936;-81
2022/10/21 01:15:36;;;;;;;27.30;17.10;;;;;;;1.81;89.53;99415.41;2190521;81;20936;-81
2022/10/21 01:18:36;;;;;;;24.33;15.50;;;;;;;1.79;89.36;99414.84;2190891;81;20909;-81
2022/10/21 01:21:36;;;;;;;27.10;16.17;;;;;;;1.78;89.12;99422.95;2190870;81;21379;-81
2022/10/21 01:24:37;;;;;;;30.73;17.17;;;;;;;1.79;89.29;99426.42;2190355;81;21040;-81
2022/10/21 01:27:37;;;;;;;25.03;15.63;;;;;;;1.81;89.45;99433.83;2190889;81;20940;-81
2022/10/21 01:30:38;;;;;;;40.13;17.27;;;;;;;1.81;89.25;99434.71;2190891;81;21337;-81
2022/10/21 01:33:38;;;;;;;62.10;17.87;;;;;;;1.83;89.22;99422.81;2190598;81;20944;-83
2022/10/21 01:36:38;;;;;;;78.20;19.13;;;;;;;1.84;89.15;99424.58;2191043;81;20925;-82
2022/10/21 01:39:39;;;;;;;67.80;17.87;;;;;;;1.85;89.34;99419.92;2190688;81;20976;-82
2022/10/21 01:42:39;;;;;;;29.77;16.87;;;;;;;1.88;89.21;99429.09;2190516;81;20980;-81
2022/10/21 01:45:40;;;;;;;32.47;17.47;;;;;;;1.88;89.05;99430.78;2190632;81;20933;-81
2022/10/21 01:48:40;;;;;;;65.73;33.50;;;;;;;1.91;89.23;99433.53;2190599;81;21283;-81
2022/10/21 01:51:41;;;;;;;25.40;17.20;;;;;;;1.94;89.24;99431.52;2190404;81;21446;-82
2022/10/21 01:54:41;;;;;;;24.10;16.90;;;;;;;1.94;89.14;99428.95;2178483;81;21100;-81
2022/10/21 01:57:41;;;;;;;104.80;22.07;;;;;;;1.90;89.07;99427.50;2173948;81;21097;-81
2022/10/21 02:00:42;;;;;;;26.77;17.00;;;;;;;1.89;89.34;99428.30;2173918;81;21337;-81
2022/10/21 02:03:42;;;;;;;26.77;16.70;;;;;;;1.91;89.33;99434.82;2173578;81;20965;-82
2022/10/21 02:06:42;;;;;;;113.10;22.83;;;;;;;1.91;89.49;99433.53;2173935;81;20901;-82
2022/10/21 02:09:43;;;;;;;28.50;16.97;;;;;;;1.91;89.52;99432.24;2174086;81;20913;-82
2022/10/21 02:12:43;;;;;;;29.63;17.93;;;;;;;1.89;89.63;99423.15;2173967;81;21287;-82
2022/10/21 02:15:44;;;;;;;25.33;17.37;;;;;;;1.87;89.39;99429.90;2173855;81;20933;-81
2022/10/21 02:18:44;;;;;;;28.93;18.07;;;;;;;1.86;89.66;99422.98;2174071;81;20901;-81
2022/10/21 02:21:45;;;;;;;28.17;17.53;;;;;;;1.85;89.60;99430.22;2174036;81;20973;-81
2022/10/21 02:24:45;;;;;;;30.77;17.90;;;;;;;1.83;89.70;99430.53;2174037;81;21400;-82
2022/10/21 02:27:45;;;;;;;37.90;18.90;;;;;;;1.80;89.33;99421.76;2174095;81;20933;-82
2022/10/21 02:30:46;;;;;;;28.53;18.27;;;;;;;1.78;89.45;99416.92;2173934;81;21025;-82
2022/10/21 02:33:46;;;;;;;47.30;19.63;;;;;;;1.78;89.47;99416.52;2173831;81;20921;-82
2022/10/21 02:36:47;;;;;;;26.67;17.40;;;;;;;1.77;89.29;99410.89;2174000;81;20886;-82
2022/10/21 02:39:47;;;;;;;31.00;18.60;;;;;;;1.75;89.30;99402.20;2173630;81;20925;-82
2022/10/21 02:42:48;;;;;;;29.47;18.30;;;;;;;1.72;89.35;99393.39;2174003;81;20969;-82
2022/10/21 02:45:48;;;;;;;33.47;18.83;;;;;;;1.70;89.32;99393.70;2173966;81;20937;-82
2022/10/21 02:48:48;;;;;;;29.50;19.00;;;;;;;1.64;89.39;99388.22;2173947;81;21312;-82
2022/10/21 02:51:49;;;;;;;32.00;20.10;;;;;;;1.60;89.54;99389.73;2173756;81;20965;-81
2022/10/21 02:54:49;;;;;;;29.87;19.03;;;;;;;1.58;89.62;99387.08;2173730;81;21040;-82
2022/10/21 02:57:49;;;;;;;32.23;18.80;;;;;;;1.53;89.53;99382.48;2173742;81;20957;-82
2022/10/21 03:00:50;;;;;;;33.60;18.73;;;;;;;1.52;89.55;99381.99;2173933;81;20933;-81
2022/10/21 03:03:50;;;;;;;27.40;17.47;;;;;;;1.53;89.70;99377.33;2174111;81;21023;-82
2022/10/21 03:06:51;;;;;;;27.70;19.03;;;;;;;1.49;90.01;99365.98;2173763;81;20960;-81
2022/10/21 03:09:51;;;;;;;141.43;24.27;;;;;;;1.47;89.80;99365.02;2173909;81;20984;-82
2022/10/21 03:12:52;;;;;;;40.40;20.00;;;;;;;1.45;90.22;99351.58;2174030;81;21288;-81
2022/10/21 03:15:52;;;;;;;31.83;20.97;;;;;;;1.46;90.22;99364.93;2173976;81;20965;-82
2022/10/21 03:18:52;;;;;;;27.70;18.80;;;;;;;1.45;90.29;99361.88;2173596;81;20933;-81
2022/10/21 03:21:53;;;;;;;29.87;19.07;;;;;;;1.44;90.10;99356.23;2173787;81;20976;-81
2022/10/21 03:24:53;;;;;;;46.93;20.80;;;;;;;1.39;90.89;99340.95;2173253;81;21434;-81
2022/10/21 03:27:54;;;;;;;31.47;19.87;;;;;;;1.34;90.54;99338.13;2173099;81;20945;-82
2022/10/21 03:30:54;;;;;;;32.03;20.40;;;;;;;1.31;90.72;99331.92;2173484;81;21000;-81
2022/10/21 03:33:54;;;;;;;35.03;21.53;;;;;;;1.29;90.94;99340.84;2172288;81;21028;-81
2022/10/21 03:36:55;;;;;;;37.10;23.23;;;;;;;1.28;91.02;99338.67;2173001;81;20925;-81
2022/10/21 03:39:55;;;;;;;160.70;28.57;;;;;;;1.30;91.05;99341.73;2172722;81;21004;-82
2022/10/21 03:42:56;;;;;;;28.63;19.07;;;;;;;1.42;91.68;99346.27;2172761;81;21012;-84
2022/10/21 03:45:56;;;;;;;34.23;20.20;;;;;;;1.39;91.03;99344.81;2171827;81;20980;-84
2022/10/21 03:48:56;;;;;;;33.77;20.57;;;;;;;1.53;91.27;99334.88;2171929;81;21375;-82
2022/10/21 03:51:57;;;;;;;63.63;21.93;;;;;;;1.42;90.72;99335.98;2171202;81;21036;-81
2022/10/21 03:54:57;;;;;;;43.70;26.03;;;;;;;1.36;90.70;99333.95;2180326;81;21083;-82
2022/10/21 03:57:58;;;;;;;37.80;24.17;;;;;;;1.33;90.98;99330.33;2186625;81;21482;-83
2022/10/21 04:00:58;;;;;;;33.00;20.17;;;;;;;1.31;90.75;99332.81;2186830;81;21350;-83
2022/10/21 04:03:58;;;;;;;39.37;20.07;;;;;;;1.27;90.87;99333.04;2186519;81;20913;-83
2022/10/21 04:06:59;;;;;;;34.73;21.00;;;;;;;1.23;91.02;99325.06;2186165;81;21027;-82
2022/10/21 04:09:59;;;;;;;34.67;20.57;;;;;;;1.23;91.27;99323.78;2187169;81;20991;-83
2022/10/21 04:13:00;;;;;;;32.33;20.27;;;;;;;1.20;91.03;99314.21;2187409;81;20979;-83
2022/10/21 04:16:00;;;;;;;36.20;21.67;;;;;;;1.20;91.11;99310.75;2187134;81;20999;-84
2022/10/21 04:19:00;;;;;;;31.67;20.30;;;;;;;1.17;91.30;99288.33;2186343;81;21042;-84
2022/10/21 04:22:01;;;;;;;30.27;19.20;;;;;;;1.12;91.38;99288.47;2186420;81;20983;-83
2022/10/21 04:25:01;;;;;;;32.10;21.07;;;;;;;1.12;91.82;99282.05;2186549;81;21063;-83
2022/10/21 04:28:02;;;;;;;32.63;21.60;;;;;;;1.10;91.42;99288.78;2186548;81;20999;-83
2022/10/21 04:31:02;;;;;;;30.27;20.33;;;;;;;1.09;91.55;99271.98;2186271;81;20991;-84
2022/10/21 04:34:03;;;;;;;35.50;23.43;;;;;;;1.06;91.63;99273.98;2186728;81;21491;-84
2022/10/21 04:37:06;;;;;;;38.13;23.23;;;;;;;1.09;91.89;99279.70;2187827;81;20924;-85
2022/10/21 04:40:06;;;;;;;42.83;20.63;;;;;;;1.12;91.71;99276.91;2187636;81;21015;-84
2022/10/21 04:43:07;;;;;;;81.47;43.67;;;;;;;1.15;91.69;99284.78;2187381;81;21434;-84
2022/10/21 04:46:07;;;;;;;42.50;24.60;;;;;;;1.15;91.37;99282.21;2187933;81;21470;-84
2022/10/21 04:49:08;;;;;;;43.87;21.97;;;;;;;1.15;91.22;99278.36;2187876;81;21024;-83
2022/10/21 04:52:08;;;;;;;59.43;24.13;;;;;;;1.14;91.60;99276.98;2188607;81;21340;-84
2022/10/21 04:55:08;;;;;;;30.90;21.27;;;;;;;1.18;91.32;99278.92;2178766;81;21071;-84
2022/10/21 04:58:09;;;;;;;34.47;21.90;;;;;;;1.20;91.04;99281.18;2171811;81;21019;-84
2022/10/21 05:01:09;;;;;;;39.10;21.67;;;;;;;1.21;90.82;99279.98;2171494;81;21024;-84
2022/10/21 05:04:10;;;;;;;43.90;22.00;;;;;;;1.23;90.83;99274.52;2171966;81;20968;-84
2022/10/21 05:07:10;;;;;;;40.43;21.97;;;;;;;1.23;90.90;99273.64;2171640;81;20976;-84
2022/10/21 05:10:16;;;;;;;37.10;20.73;;;;;;;1.23;90.54;99286.09;2170869;81;21059;-79
2022/10/21 05:13:17;;;;;;;51.13;23.33;;;;;;;1.24;90.66;99288.27;2169444;81;20987;-83
2022/10/21 05:16:17;;;;;;;39.60;22.50;;;;;;;1.27;90.59;99281.60;2171185;81;21318;-84
2022/10/21 05:19:18;;;;;;;35.63;21.37;;;;;;;1.28;90.36;99275.66;2171556;81;20981;-83
2022/10/21 05:22:18;;;;;;;38.57;22.97;;;;;;;1.23;90.16;99281.34;2171112;81;20980;-86
2022/10/21 05:25:18;;;;;;;44.37;22.23;;;;;;;1.21;90.25;99293.23;2170591;81;21028;-84
2022/10/21 05:28:19;;;;;;;40.33;22.47;;;;;;;1.21;90.36;99285.52;2170397;81;21361;-85
2022/10/21 05:31:19;;;;;;;34.63;21.60;;;;;;;1.24;90.21;99281.84;2170322;81;20987;-84
2022/10/21 05:34:20;;;;;;;35.47;21.40;;;;;;;1.27;90.17;99279.03;2171222;81;20987;-85
2022/10/21 05:37:20;;;;;;;31.93;21.63;;;;;;;1.29;90.02;99275.26;2171671;81;20999;-85
2022/10/21 05:40:21;;;;;;;34.87;21.77;;;;;;;1.28;90.00;99274.38;2172132;81;20992;-86
2022/10/21 05:43:21;;;;;;;35.40;22.33;;;;;;;1.32;89.95;99274.14;2171390;81;20945;-86
2022/10/21 05:46:22;;;;;;;33.90;21.57;;;;;;;1.40;89.94;99281.88;2170985;81;20992;-84
2022/10/21 05:49:24;;;;;;;56.63;23.73;;;;;;;1.45;89.82;99274.00;2171268;81;21783;-84
2022/10/21 05:52:24;;;;;;;43.60;22.93;;;;;;;1.50;89.74;99279.40;2164528;82;21419;-84
2022/10/21 05:55:24;;;;;;;40.10;23.17;;;;;;;1.60;89.64;99282.95;2169532;81;21126;-85
2022/10/21 05:58:25;;;;;;;41.73;21.93;;;;;;;1.69;89.28;99279.98;2170226;81;21019;-86
2022/10/21 06:01:28;;;;;;;33.77;21.30;;;;;;;1.75;89.22;99281.23;2170122;81;21008;-83
2022/10/21 06:04:28;;;;;;;34.67;22.83;;;;;;;1.82;88.79;99278.17;2163612;82;21000;-84
2022/10/21 06:07:28;;;;;;;41.63;22.90;;;;;;;1.93;88.96;99282.60;2171570;81;21324;-84
2022/10/21 06:10:28;;;;;;;67.80;24.97;;;;;;;2.09;88.85;99282.59;2171097;81;21785;-85
2022/10/21 06:13:29;;;;;;;32.53;22.80;;;;;;;2.22;88.47;99288.86;2170994;82;20960;-84
2022/10/21 06:16:29;;;;;;;32.17;21.50;;;;;;;2.39;88.28;99290.13;2170574;81;21247;-85
2022/10/21 06:19:30;;;;;;;32.20;22.27;;;;;;;2.64;88.07;99276.41;2170920;81;21031;-83
2022/10/21 06:22:30;;;;;;;33.07;21.27;;;;;;;2.86;87.57;99280.52;2170687;81;20980;-85
2022/10/21 06:25:31;;;;;;;34.83;22.23;;;;;;;3.05;86.97;99261.67;2170673;81;21049;-83
2022/10/21 06:28:31;;;;;;;46.53;21.70;;;;;;;3.25;86.50;99260.44;2170757;81;20993;-82
2022/10/21 06:31:31;;;;;;;36.20;21.00;;;;;;;3.44;86.34;99283.30;2170462;81;21458;-84
2022/10/21 06:34:32;;;;;;;40.40;21.47;;;;;;;3.59;85.79;99297.36;2171251;81;20956;-85
2022/10/21 06:37:32;;;;;;;89.07;22.73;;;;;;;3.62;85.46;99292.34;2171536;81;21024;-85
2022/10/21 06:40:33;;;;;;;38.43;21.43;;;;;;;3.64;85.15;99285.55;2170840;82;20964;-84
2022/10/21 06:43:33;;;;;;;35.33;21.03;;;;;;;3.70;84.58;99287.12;2170611;81;21076;-85
2022/10/21 06:46:33;;;;;;;31.07;19.90;;;;;;;3.81;84.65;99285.91;2169934;81;20992;-86
2022/10/21 06:49:34;;;;;;;32.43;19.90;;;;;;;3.92;84.50;99277.76;2169775;81;20989;-85
2022/10/21 06:52:34;;;;;;;144.53;25.23;;;;;;;4.01;83.91;99288.09;2169607;81;20992;-86
2022/10/21 06:55:35;;;;;;;30.20;20.70;;;;;;;4.06;83.56;99293.05;2169839;81;21054;-85
2022/10/21 06:58:35;;;;;;;31.87;19.67;;;;;;;4.18;83.45;99299.17;2170403;81;21056;-85
2022/10/21 07:01:37;;;;;;;32.17;20.17;;;;;;;4.32;82.50;99286.45;2159837;82;21051;-85
2022/10/21 07:04:38;;;;;;;39.40;21.20;;;;;;;4.41;82.85;99292.05;2169694;81;21013;-85
2022/10/21 07:07:38;;;;;;;31.60;21.07;;;;;;;4.50;82.15;99279.04;2170106;81;21591;-82
2022/10/21 07:10:43;;;;;;;48.03;20.53;;;;;;;4.55;82.21;99276.23;2170718;81;21007;-84
2022/10/21 07:13:44;;;;;;;34.13;20.17;;;;;;;4.67;81.55;99280.63;2159603;82;20973;-85
2022/10/21 07:16:47;;;;;;;36.47;21.10;;;;;;;4.81;81.84;99283.38;2169664;81;21039;-85
2022/10/21 07:19:46;;;;;;;28.43;19.27;;;;;;;4.94;81.29;99272.72;2163608;82;21366;-85
2022/10/21 07:22:47;;;;;;;27.20;18.93;;;;;;;5.10;80.92;99267.34;2169871;81;20980;-85
2022/10/21 07:25:47;;;;;;;33.90;21.07;;;;;;;5.25;80.42;99269.68;2169923;81;21075;-85
2022/10/21 07:28:48;;;;;;;32.03;20.27;;;;;;;5.29;80.30;99275.86;2170043;81;21070;-85
2022/10/21 07:31:48;;;;;;;32.17;20.10;;;;;;;5.34;80.00;99268.75;2169911;81;21371;-85
2022/10/21 07:34:48;;;;;;;411.03;39.20;;;;;;;5.39;80.06;99261.16;2169704;81;21052;-85
2022/10/21 07:37:49;;;;;;;67.90;22.60;;;;;;;5.40;79.78;99253.45;2170140;81;20952;-85
2022/10/21 07:40:49;;;;;;;34.10;20.33;;;;;;;5.50;79.51;99258.98;2170020;81;21000;-85
2022/10/21 07:43:50;;;;;;;27.67;19.93;;;;;;;5.59;79.45;99255.04;2169894;81;21387;-86
2022/10/21 07:46:50;;;;;;;77.60;22.33;;;;;;;5.71;79.13;99258.50;2171822;82;21004;-82
2022/10/21 07:49:51;;;;;;;87.13;25.10;;;;;;;5.80;78.59;99254.95;2171907;81;20933;-85
2022/10/21 07:52:51;;;;;;;70.13;24.03;;;;;;;5.91;78.69;99249.79;2171056;81;21227;-85
2022/10/21 07:55:51;;;;;;;67.53;22.03;;;;;;;6.03;78.33;99246.77;2180487;81;21455;-84
2022/10/21 07:58:52;;;;;;;32.13;20.70;;;;;;;6.10;78.11;99247.89;2187771;81;21431;-84
2022/10/21 08:01:52;;;;;;;40.43;21.37;;;;;;;6.11;77.41;99242.77;2188212;81;21003;-84
2022/10/21 08:04:53;;;;;;;31.77;20.47;;;;;;;6.08;77.51;99233.59;2188420;81;20995;-84
2022/10/21 08:07:53;;;;;;;30.43;20.90;;;;;;;6.13;77.49;99235.93;2188687;81;21514;-84
2022/10/21 08:10:53;;;;;;;34.17;21.77;;;;;;;6.18;77.43;99230.49;2187814;81;20979;-84
2022/10/21 08:13:54;;;;;;;36.13;22.30;;;;;;;6.27;77.14;99213.96;2187859;81;21478;-83
2022/10/21 08:16:54;;;;;;;31.87;21.83;;;;;;;6.47;77.23;99212.47;2187449;81;20971;-84
2022/10/21 08:19:55;;;;;;;30.30;20.47;;;;;;;6.68;77.05;99210.17;2187057;81;20963;-83
2022/10/21 08:22:55;;;;;;;34.27;21.37;;;;;;;6.98;76.48;99199.05;2186549;81;21383;-83
2022/10/21 08:25:55;;;;;;;28.27;20.83;;;;;;;7.23;75.42;99191.59;2186836;81;21091;-84
2022/10/21 08:28:56;;;;;;;30.07;21.33;;;;;;;7.32;75.23;99189.28;2187062;81;21015;-85
2022/10/21 08:31:56;;;;;;;45.53;20.70;;;;;;;7.49;75.27;99189.78;2186319;81;21035;-83
2022/10/21 08:34:57;;;;;;;37.60;21.43;;;;;;;7.55;74.93;99175.25;2186250;81;21024;-84
2022/10/21 08:37:57;;;;;;;31.77;20.87;;;;;;;7.74;75.20;99166.27;2186084;81;21039;-85
2022/10/21 08:40:58;;;;;;;31.57;20.67;;;;;;;7.82;74.45;99165.21;2186046;81;21034;-84
2022/10/21 08:43:59;;;;;;;78.37;23.83;;;;;;;7.90;74.07;99159.39;2185942;81;20999;-84
2022/10/21 08:46:58;;;;;;;38.23;20.73;;;;;;;7.96;73.91;99154.77;2186245;81;21138;-84
2022/10/21 08:49:59;;;;;;;32.27;20.83;;;;;;;8.06;73.73;99147.67;2185982;81;20968;-86
2022/10/21 08:52:59;;;;;;;32.47;21.27;;;;;;;8.05;73.11;99146.34;2185914;81;20999;-84
2022/10/21 08:56:00;;;;;;;29.53;19.87;;;;;;;7.98;73.01;99143.58;2177983;81;21106;-85
2022/10/21 08:59:00;;;;;;;28.40;19.70;;;;;;;7.98;73.10;99138.80;2169653;81;21004;-84
2022/10/21 09:02:00;;;;;;;34.97;20.83;;;;;;;8.00;72.67;99144.91;2169329;81;20961;-84
2022/10/21 09:05:01;;;;;;;28.03;19.30;;;;;;;8.05;73.55;99145.04;2169295;81;20996;-84
2022/10/21 09:08:01;;;;;;;31.27;20.53;;;;;;;8.11;73.32;99144.78;2169174;81;20988;-85
2022/10/21 09:11:02;;;;;;;24.00;18.77;;;;;;;8.21;73.49;99144.18;2170101;81;21008;-84
2022/10/21 09:14:02;;;;;;;41.30;19.60;;;;;;;8.30;72.72;99139.63;2169898;81;20964;-83
2022/10/21 09:17:02;;;;;;;28.43;19.43;;;;;;;8.28;72.92;99137.41;2169969;81;20973;-84
2022/10/21 09:20:03;;;;;;;32.53;20.20;;;;;;;8.33;72.33;99129.34;2170267;81;20974;-86
2022/10/21 09:23:03;;;;;;;27.77;19.40;;;;;;;8.33;72.77;99129.34;2170504;81;21688;-84
2022/10/21 09:26:04;;;;;;;29.70;19.70;;;;;;;8.45;73.08;99121.84;2169610;81;21087;-85
2022/10/21 09:29:04;;;;;;;25.87;19.23;;;;;;;8.60;72.90;99124.81;2170087;81;20936;-85
2022/10/21 09:32:04;;;;;;;113.27;24.43;;;;;;;8.70;72.32;99119.44;2169855;81;20988;-86
2022/10/21 09:35:05;;;;;;;42.20;20.17;;;;;;;8.75;72.21;99123.03;2170777;81;21000;-85
2022/10/21 09:38:05;;;;;;;197.23;28.73;;;;;;;8.81;72.48;99114.06;2171526;81;21340;-86
2022/10/21 09:41:06;;;;;;;27.03;18.90;;;;;;;8.90;72.54;99111.66;2171392;81;21323;-85
2022/10/21 09:44:06;;;;;;;29.03;19.27;;;;;;;8.90;72.03;99106.88;2171618;81;20961;-83
2022/10/21 09:47:06;;;;;;;32.80;19.00;;;;;;;8.83;71.84;99099.36;2171405;81;21011;-83
2022/10/21 09:50:07;;;;;;;26.20;17.80;;;;;;;8.84;71.96;99094.61;2171744;81;21024;-84
2022/10/21 09:53:10;;;;;;;22.13;16.97;;;;;;;8.98;72.37;99100.55;2170910;81;20995;-84
2022/10/21 09:56:10;;;;;;;27.43;18.63;;;;;;;9.16;71.88;99094.44;2165575;82;21067;-84
2022/10/21 09:59:10;;;;;;;103.73;22.53;;;;;;;9.24;71.78;99088.96;2178209;82;21004;-83
2022/10/21 10:02:11;;;;;;;51.37;19.13;;;;;;;9.40;72.20;99081.03;2178172;82;21720;-83
2022/10/21 10:05:11;;;;;;;24.80;17.20;;;;;;;9.64;71.69;99079.37;2177890;82;20976;-83
2022/10/21 10:08:11;;;;;;;25.93;17.27;;;;;;;9.74;70.57;99064.36;2177772;82;21067;-82
2022/10/21 10:11:12;;;;;;;35.13;17.43;;;;;;;9.68;70.17;99064.24;2178347;82;21048;-83
2022/10/21 10:14:12;;;;;;;27.37;17.97;;;;;;;9.66;70.43;99047.70;2178733;82;20984;-84
2022/10/21 10:17:13;;;;;;;25.90;16.03;;;;;;;9.68;70.25;99056.42;2178784;82;20960;-84
2022/10/21 10:20:13;;;;;;;76.07;18.93;;;;;;;9.69;69.85;99055.57;2178923;82;21031;-83
2022/10/21 10:23:13;;;;;;;20.40;16.30;;;;;;;9.66;69.29;99049.00;2179331;82;20987;-85
2022/10/21 10:26:14;;;;;;;23.37;16.00;;;;;;;9.60;69.75;99036.73;2178379;82;21039;-83
2022/10/21 10:29:14;;;;;;;33.80;15.30;;;;;;;9.65;70.12;99039.42;2178560;82;21001;-85
2022/10/21 10:32:16;;;;;;;20.87;15.63;;;;;;;9.74;69.60;99028.73;2178691;82;21063;-85
2022/10/21 10:35:16;;;;;;;27.50;15.13;;;;;;;9.82;70.15;99021.94;2179783;82;20940;-86
2022/10/21 10:38:17;;;;;;;24.30;16.27;;;;;;;9.96;69.77;99017.37;2180727;82;20989;-85
2022/10/21 10:41:17;;;;;;;487.40;44.10;;;;;;;10.04;69.64;99017.96;2180386;82;21340;-84
2022/10/21 10:44:19;;;;;;;32.47;15.30;;;;;;;10.12;70.04;99015.05;2162346;82;20961;-83
2022/10/21 10:47:20;;;;;;;23.27;15.23;;;;;;;10.27;69.37;99007.92;2178428;82;20972;-83
2022/10/21 10:50:20;;;;;;;32.67;14.23;;;;;;;10.35;69.34;99011.53;2179127;82;20996;-83
2022/10/21 10:53:24;;;;;;;19.37;14.90;;;;;;;10.35;69.33;99008.92;2178688;82;21031;-84
2022/10/21 10:56:24;;;;;;;23.57;16.40;;;;;;;10.31;68.08;99007.55;2184233;81;20988;-84
2022/10/21 10:59:24;;;;;;;22.07;15.63;;;;;;;10.30;68.38;99014.50;2189682;81;21251;-85
2022/10/21 11:02:25;;;;;;;21.60;15.30;;;;;;;10.39;68.32;99007.23;2189698;81;20979;-86
2022/10/21 11:05:25;;;;;;;21.30;14.93;;;;;;;10.48;68.35;99000.88;2189664;81;20995;-85
2022/10/21 11:08:26;;;;;;;25.23;15.57;;;;;;;10.66;68.04;98997.23;2189440;81;21035;-85
2022/10/21 11:11:26;;;;;;;20.13;14.27;;;;;;;10.76;67.23;98996.92;2190407;81;20964;-83
2022/10/21 11:14:27;;;;;;;27.93;15.95;;;;;;;10.83;66.58;98997.45;2190746;81;21093;-84
2022/10/21 11:17:29;;;;;;;45.50;16.80;;;;;;;10.88;67.42;98989.25;2188839;81;21007;-87
2022/10/21 11:20:27;;;;;;;19.25;14.80;;;;;;;11.03;67.19;98986.83;2189775;81;21348;-85
2022/10/21 11:23:28;;;;;;;29.40;16.60;;;;;;;11.14;67.31;98981.73;2189328;81;20992;-85
2022/10/21 11:26:28;;;;;;;26.60;15.43;;;;;;;11.16;66.91;98974.80;2189622;81;21086;-83
2022/10/21 11:29:29;;;;;;;24.40;15.40;;;;;;;11.16;67.20;98973.48;2189604;81;20968;-84
2022/10/21 11:32:29;;;;;;;61.28;18.48;;;;;;;11.16;67.18;98974.80;2188437;81;20976;-84
2022/10/21 11:35:30;;;;;;;26.27;16.27;;;;;;;11.13;67.12;98966.48;2187596;81;21027;-83
2022/10/21 11:38:30;;;;;;;27.65;15.63;;;;;;;11.06;66.83;98962.48;2187330;81;20972;-84
2022/10/21 11:41:30;;;;;;;21.53;16.53;;;;;;;11.01;67.02;98949.37;2187597;81;20976;-84
2022/10/21 11:44:31;;;;;;;32.30;17.13;;;;;;;10.93;67.14;98946.22;2186828;81;21371;-85
2022/10/21 11:47:31;;;;;;;20.55;15.60;;;;;;;10.93;67.48;98939.69;2187469;81;21017;-85
2022/10/21 11:50:31;;;;;;;23.02;15.50;;;;;;;10.93;67.15;98938.38;2187752;81;21047;-85
2022/10/21 11:53:33;;;;;;;19.20;15.23;;;;;;;10.98;67.15;98932.36;2187474;81;21027;-84
2022/10/21 11:56:37;;;;;;;21.65;17.25;;;;;;;11.08;67.55;98918.54;2179659;81;21039;-84
2022/10/21 11:59:34;;;;;;;24.40;17.93;;;;;;;11.17;66.67;98925.59;2170616;81;21026;-85
2022/10/21 12:02:34;;;;;;;38.25;17.87;;;;;;;11.22;66.58;98925.22;2170617;81;21013;-83
2022/10/21 12:05:37;;;;;;;23.18;17.02;;;;;;;11.30;67.34;98924.02;2170997;81;21075;-84
2022/10/21 12:08:38;;;;;;;30.20;18.23;;;;;;;11.41;65.94;98918.47;2170783;81;20968;-85
2022/10/21 12:11:38;;;;;;;23.57;16.97;;;;;;;11.46;66.10;98918.95;2169350;81;21490;-86
2022/10/21 12:14:39;;;;;;;28.00;19.50;;;;;;;11.55;66.12;98912.06;2169411;81;20957;-86
2022/10/21 12:17:39;;;;;;;51.10;18.07;;;;;;;11.67;66.42;98916.09;2168905;81;20965;-86
2022/10/21 12:20:40;;;;;;;20.17;15.70;;;;;;;11.75;66.17;98906.57;2169468;81;20980;-85
2022/10/21 12:23:40;;;;;;;22.42;16.30;;;;;;;11.80;65.75;98900.98;2169574;81;20988;-85
2022/10/21 12:26:40;;;;;;;22.60;16.05;;;;;;;11.87;66.55;98891.01;2169796;81;20977;-85
2022/10/21 12:29:42;;;;;;;25.12;17.02;;;;;;;11.96;65.68;98888.89;2168949;81;20988;-84
2022/10/21 12:32:41;;;;;;;19.65;15.05;;;;;;;12.00;66.27;98894.16;2168782;81;21039;-83
2022/10/21 12:35:42;;;;;;;19.30;14.93;;;;;;;12.14;66.22;98892.97;2169394;81;20940;-84
2022/10/21 12:38:42;;;;;;;18.87;14.85;;;;;;;12.20;65.07;98896.93;2169417;81;21732;-84
2022/10/21 12:41:43;;;;;;;21.30;14.50;;;;;;;12.21;65.54;98886.03;2169633;82;20997;-84
2022/10/21 12:44:43;;;;;;;23.85;15.20;;;;;;;12.31;63.89;98872.13;2170226;81;20992;-81
2022/10/21 12:47:43;;;;;;;18.25;14.18;;;;;;;12.24;64.70;98875.14;2171310;81;21028;-82
2022/10/21 12:50:44;;;;;;;25.12;15.18;;;;;;;12.28;64.56;98879.97;2170586;81;21008;-82
2022/10/21 12:53:44;;;;;;;26.85;14.50;;;;;;;12.39;64.74;98861.27;2171383;81;21281;-82
2022/10/21 12:56:45;;;;;;;20.35;14.28;;;;;;;12.56;64.07;98865.27;2170548;81;21039;-81
2022/10/21 12:59:45;;;;;;;20.57;14.85;;;;;;;12.68;63.73;98867.50;2170765;81;21016;-81
2022/10/21 13:02:45;;;;;;;22.60;14.20;;;;;;;12.67;63.09;98866.18;2170074;81;20958;-82
2022/10/21 13:05:46;;;;;;;19.65;14.10;;;;;;;12.70;62.98;98856.59;2170371;81;20964;-81
2022/10/21 13:08:46;;;;;;;19.05;14.47;;;;;;;12.78;62.51;98864.91;2170212;82;20959;-81
2022/10/21 13:11:47;;;;;;;24.02;15.25;;;;;;;12.88;62.54;98869.31;2171023;81;21024;-82
2022/10/21 13:14:47;;;;;;;20.23;14.25;;;;;;;12.88;62.80;98864.06;2171421;81;20965;-82
2022/10/21 13:17:47;;;;;;;57.85;17.65;;;;;;;12.85;62.77;98857.08;2170557;81;21412;-82
2022/10/21 13:20:48;;;;;;;21.77;14.85;;;;;;;12.84;63.05;98843.97;2170029;81;20964;-82
2022/10/21 13:23:48;;;;;;;52.08;16.55;;;;;;;12.84;62.58;98849.21;2170533;81;20932;-79
2022/10/21 13:26:49;;;;;;;23.83;14.95;;;;;;;12.72;62.24;98848.30;2169560;81;21430;-81
2022/10/21 13:29:49;;;;;;;20.82;14.83;;;;;;;12.69;63.38;98852.66;2169587;81;21019;-81
2022/10/21 13:32:49;;;;;;;33.48;15.98;;;;;;;12.67;63.54;98855.27;2168382;81;21293;-80
2022/10/21 13:35:50;;;;;;;27.90;15.20;;;;;;;12.66;63.33;98852.64;2168001;81;21043;-82
2022/10/21 13:38:50;;;;;;;35.73;15.50;;;;;;;12.63;63.66;98857.44;2169521;81;20968;-81
2022/10/21 13:41:51;;;;;;;18.07;14.03;;;;;;;12.55;63.20;98852.61;2169944;81;21352;-80
2022/10/21 13:44:51;;;;;;;18.98;13.88;;;;;;;12.43;62.76;98835.11;2170377;81;20965;-82
2022/10/21 13:47:52;;;;;;;37.50;15.13;;;;;;;12.33;63.66;98835.94;2171283;81;21036;-83
2022/10/21 13:50:52;;;;;;;19.17;13.83;;;;;;;12.29;64.12;98841.14;2171223;81;21016;-82
2022/10/21 13:53:52;;;;;;;18.45;12.85;;;;;;;12.25;64.25;98847.23;2171319;81;20953;-82